Airfield :
LOGIN :

Register | Disclaimer

   EN    FR    IT 

 










Legend :    VFR   Marginal VFR   IFR   Intensive IFR   Very Intensive IFR
Visi :
Ceiling :
>= 8 km
>= 3000ft
5 to 8 km
1000 to 3000 ft
1500m to 5 km
500 to 1000 ft
800 to 1500m
200 to 500 ft
< 800m
< 200 ft
Symbols :   Thunderstorms  Fog  Heavy snow  Heavy precipitations  Wind > 20 kt
SIGMETs :     Misc.  Thunderstorms  Icing  Turbulence  Mountain Waves  Volcanic Ashes







- Airport Elevation : 995 ft
- IATA code : KTW


EPKT - Katowice

CURRENT METAR :
  • 200900Z 20007KT 5000 BR NSC M00/M01 Q1009

EXPIRED METARs :
  • 200830Z 17005KT 3700 BR NSC M01/M01 Q1009
  • 200800Z 16004KT 2800 BR FEW003 SCT048 M01/M02 Q1009
  • 200730Z VRB02KT 1600 BR FEW003 SCT026 BKN045 M02/M03 Q1009
  • 200700Z 21005KT 180V240 1800 BR FEW003 M02/M03 Q1009
  • 200630Z VRB02KT 1200 R27/1900N BR FEW044 M04/M05 Q1009

TAF AMD TAF EPKT
Valid from the 20 at 06:00 until the 21 at 06:00 UTC


200605Z 2006/2106 18004KT 2000 BR BKN030
TEMPO 2006/2008 0300 FZFG BKN002
BECMG 2008/2011 8000
TEMPO 2012/2016 SCT030CB
TEMPO 2016/2021 4000 BR
BECMG 2021/2024 4000 -SN BKN012
TEMPO 2103/2106 2000 SN BKN004
No reported NOTAMs for that airfield.



MET'MAP, your aeronautical weather chart ! - Copyright ORBIFLY December 2007 - Disclaimer

ORBIFLY MET'MAP TEAM :

Programming & Development : Alexandra Zaïnal
Concept & Development : Baudouin d'Aumeries
Co-Development & Prog : Marc-Olivier Méhu
Technical & hardware support : Manuel Goepfert

Contact : metmap@orbifly.com




SOURCES & CREDITS :

   NOAA